sensor_id;sensor_type;location;lat;lon;timestamp;temperature;humidity
15384;DHT22;7790;53.022;12.968;2023-12-04T00:02:20;22.00;36.50
15384;DHT22;7790;53.022;12.968;2023-12-04T00:06:22;22.00;36.40
15384;DHT22;7790;53.022;12.968;2023-12-04T00:10:23;22.00;36.20
15384;DHT22;7790;53.022;12.968;2023-12-04T00:14:24;22.00;35.90
15384;DHT22;7790;53.022;12.968;2023-12-04T00:18:25;22.00;36.00
15384;DHT22;7790;53.022;12.968;2023-12-04T00:22:26;22.00;35.90
15384;DHT22;7790;53.022;12.968;2023-12-04T00:26:26;22.00;36.40
15384;DHT22;7790;53.022;12.968;2023-12-04T00:30:28;21.90;37.40
15384;DHT22;7790;53.022;12.968;2023-12-04T00:34:28;21.90;37.60
15384;DHT22;7790;53.022;12.968;2023-12-04T00:38:29;21.90;37.50
15384;DHT22;7790;53.022;12.968;2023-12-04T00:42:30;21.90;37.40
15384;DHT22;7790;53.022;12.968;2023-12-04T00:46:31;21.80;37.90
15384;DHT22;7790;53.022;12.968;2023-12-04T00:50:32;21.80;37.70
15384;DHT22;7790;53.022;12.968;2023-12-04T00:54:33;21.80;37.60
15384;DHT22;7790;53.022;12.968;2023-12-04T00:58:33;21.80;38.30
15384;DHT22;7790;53.022;12.968;2023-12-04T01:02:34;21.80;38.20
15384;DHT22;7790;53.022;12.968;2023-12-04T01:06:35;21.80;37.80
15384;DHT22;7790;53.022;12.968;2023-12-04T01:10:36;21.80;38.40
15384;DHT22;7790;53.022;12.968;2023-12-04T01:14:37;21.70;38.50
15384;DHT22;7790;53.022;12.968;2023-12-04T01:18:39;21.70;38.40
15384;DHT22;7790;53.022;12.968;2023-12-04T01:22:39;21.70;37.90
15384;DHT22;7790;53.022;12.968;2023-12-04T01:26:40;21.70;38.10
15384;DHT22;7790;53.022;12.968;2023-12-04T01:30:41;21.70;37.90
15384;DHT22;7790;53.022;12.968;2023-12-04T01:34:42;21.80;38.00
15384;DHT22;7790;53.022;12.968;2023-12-04T01:38:43;21.80;38.10
15384;DHT22;7790;53.022;12.968;2023-12-04T01:42:44;21.80;37.80
15384;DHT22;7790;53.022;12.968;2023-12-04T01:46:45;21.80;37.60
15384;DHT22;7790;53.022;12.968;2023-12-04T01:50:47;21.80;37.50
15384;DHT22;7790;53.022;12.968;2023-12-04T01:54:48;21.80;37.50
15384;DHT22;7790;53.022;12.968;2023-12-04T01:58:49;21.80;37.70
15384;DHT22;7790;53.022;12.968;2023-12-04T02:02:50;21.80;37.90
15384;DHT22;7790;53.022;12.968;2023-12-04T02:06:52;21.80;38.70
15384;DHT22;7790;53.022;12.968;2023-12-04T02:10:53;21.70;38.20
15384;DHT22;7790;53.022;12.968;2023-12-04T02:14:54;21.70;38.60
15384;DHT22;7790;53.022;12.968;2023-12-04T02:18:55;21.70;38.00
15384;DHT22;7790;53.022;12.968;2023-12-04T02:22:55;21.70;38.40
15384;DHT22;7790;53.022;12.968;2023-12-04T02:27:01;21.70;38.40
15384;DHT22;7790;53.022;12.968;2023-12-04T02:31:05;21.70;38.50
15384;DHT22;7790;53.022;12.968;2023-12-04T02:35:09;21.70;38.00
15384;DHT22;7790;53.022;12.968;2023-12-04T02:39:10;21.70;38.00
15384;DHT22;7790;53.022;12.968;2023-12-04T02:43:11;21.70;38.60
15384;DHT22;7790;53.022;12.968;2023-12-04T02:47:12;21.70;37.90
15384;DHT22;7790;53.022;12.968;2023-12-04T02:51:13;21.70;38.50
15384;DHT22;7790;53.022;12.968;2023-12-04T02:55:14;21.70;38.20
15384;DHT22;7790;53.022;12.968;2023-12-04T02:59:15;21.70;38.30
15384;DHT22;7790;53.022;12.968;2023-12-04T03:03:15;21.80;37.80
15384;DHT22;7790;53.022;12.968;2023-12-04T03:07:16;21.80;37.40
15384;DHT22;7790;53.022;12.968;2023-12-04T03:11:20;21.80;37.60
15384;DHT22;7790;53.022;12.968;2023-12-04T03:15:21;21.90;37.70
15384;DHT22;7790;53.022;12.968;2023-12-04T03:19:22;21.90;38.20
15384;DHT22;7790;53.022;12.968;2023-12-04T03:23:23;21.90;37.90
15384;DHT22;7790;53.022;12.968;2023-12-04T03:27:24;21.90;37.70
15384;DHT22;7790;53.022;12.968;2023-12-04T03:31:25;21.90;38.10
15384;DHT22;7790;53.022;12.968;2023-12-04T03:35:26;21.90;38.10
15384;DHT22;7790;53.022;12.968;2023-12-04T03:39:27;21.90;38.10
15384;DHT22;7790;53.022;12.968;2023-12-04T03:43:28;21.90;38.10
15384;DHT22;7790;53.022;12.968;2023-12-04T03:47:29;21.90;38.00
15384;DHT22;7790;53.022;12.968;2023-12-04T03:51:30;21.90;38.20
15384;DHT22;7790;53.022;12.968;2023-12-04T03:55:30;21.90;37.90
15384;DHT22;7790;53.022;12.968;2023-12-04T03:59:31;21.90;37.70
15384;DHT22;7790;53.022;12.968;2023-12-04T04:03:32;21.90;37.70
15384;DHT22;7790;53.022;12.968;2023-12-04T04:07:33;21.90;37.80
15384;DHT22;7790;53.022;12.968;2023-12-04T04:11:35;21.90;37.80
15384;DHT22;7790;53.022;12.968;2023-12-04T04:15:36;21.90;38.10
15384;DHT22;7790;53.022;12.968;2023-12-04T04:19:36;21.90;37.90
15384;DHT22;7790;53.022;12.968;2023-12-04T04:23:37;21.90;37.90
15384;DHT22;7790;53.022;12.968;2023-12-04T04:27:38;21.90;37.80
15384;DHT22;7790;53.022;12.968;2023-12-04T04:31:39;21.90;37.80
15384;DHT22;7790;53.022;12.968;2023-12-04T04:35:40;21.90;37.80
15384;DHT22;7790;53.022;12.968;2023-12-04T04:39:40;21.90;37.70
15384;DHT22;7790;53.022;12.968;2023-12-04T04:43:42;21.90;38.00
15384;DHT22;7790;53.022;12.968;2023-12-04T04:47:43;21.90;38.20
15384;DHT22;7790;53.022;12.968;2023-12-04T04:51:44;21.90;37.90
15384;DHT22;7790;53.022;12.968;2023-12-04T04:55:44;21.90;37.90
15384;DHT22;7790;53.022;12.968;2023-12-04T04:59:45;21.90;37.80
15384;DHT22;7790;53.022;12.968;2023-12-04T05:03:46;21.90;38.20
15384;DHT22;7790;53.022;12.968;2023-12-04T05:07:47;21.90;37.50
15384;DHT22;7790;53.022;12.968;2023-12-04T05:11:47;21.90;37.70
15384;DHT22;7790;53.022;12.968;2023-12-04T05:15:48;21.90;38.00
15384;DHT22;7790;53.022;12.968;2023-12-04T05:19:49;21.90;37.70
15384;DHT22;7790;53.022;12.968;2023-12-04T05:23:50;21.90;37.20
15384;DHT22;7790;53.022;12.968;2023-12-04T05:27:51;21.90;37.50
15384;DHT22;7790;53.022;12.968;2023-12-04T05:31:51;22.00;37.60
15384;DHT22;7790;53.022;12.968;2023-12-04T05:35:52;21.90;37.50
15384;DHT22;7790;53.022;12.968;2023-12-04T05:39:53;21.90;37.60
15384;DHT22;7790;53.022;12.968;2023-12-04T05:43:54;21.90;37.40
15384;DHT22;7790;53.022;12.968;2023-12-04T05:47:55;21.90;38.10
15384;DHT22;7790;53.022;12.968;2023-12-04T05:51:56;21.80;38.00
15384;DHT22;7790;53.022;12.968;2023-12-04T05:55:57;21.70;38.30
15384;DHT22;7790;53.022;12.968;2023-12-04T05:59:58;21.60;37.80
15384;DHT22;7790;53.022;12.968;2023-12-04T06:04:00;21.50;37.90
15384;DHT22;7790;53.022;12.968;2023-12-04T06:08:00;21.40;37.40
15384;DHT22;7790;53.022;12.968;2023-12-04T06:12:02;21.40;36.80
15384;DHT22;7790;53.022;12.968;2023-12-04T06:16:08;21.50;36.50
15384;DHT22;7790;53.022;12.968;2023-12-04T06:20:10;21.60;36.50
15384;DHT22;7790;53.022;12.968;2023-12-04T06:24:12;21.70;36.90
15384;DHT22;7790;53.022;12.968;2023-12-04T06:28:13;21.80;37.20
15384;DHT22;7790;53.022;12.968;2023-12-04T06:32:14;21.90;36.00
15384;DHT22;7790;53.022;12.968;2023-12-04T06:36:17;21.90;35.80
15384;DHT22;7790;53.022;12.968;2023-12-04T06:40:18;22.00;35.60
15384;DHT22;7790;53.022;12.968;2023-12-04T06:44:20;22.00;35.30
15384;DHT22;7790;53.022;12.968;2023-12-04T06:48:20;22.10;35.20
15384;DHT22;7790;53.022;12.968;2023-12-04T06:52:22;22.00;35.90
15384;DHT22;7790;53.022;12.968;2023-12-04T06:56:23;22.10;36.50
15384;DHT22;7790;53.022;12.968;2023-12-04T07:00:23;22.10;36.30
15384;DHT22;7790;53.022;12.968;2023-12-04T07:04:24;22.10;36.10
15384;DHT22;7790;53.022;12.968;2023-12-04T07:08:25;22.20;36.10
15384;DHT22;7790;53.022;12.968;2023-12-04T07:12:26;22.20;35.90
15384;DHT22;7790;53.022;12.968;2023-12-04T07:16:26;22.30;36.10
15384;DHT22;7790;53.022;12.968;2023-12-04T07:20:27;22.30;36.20
15384;DHT22;7790;53.022;12.968;2023-12-04T07:24:28;22.20;36.50
15384;DHT22;7790;53.022;12.968;2023-12-04T07:28:29;22.30;36.70
15384;DHT22;7790;53.022;12.968;2023-12-04T07:32:30;22.30;36.80
15384;DHT22;7790;53.022;12.968;2023-12-04T07:36:31;22.30;36.90
15384;DHT22;7790;53.022;12.968;2023-12-04T07:40:32;22.30;37.10
15384;DHT22;7790;53.022;12.968;2023-12-04T07:44:33;22.30;37.20
15384;DHT22;7790;53.022;12.968;2023-12-04T07:48:34;22.40;36.40
15384;DHT22;7790;53.022;12.968;2023-12-04T07:52:34;22.50;36.10
15384;DHT22;7790;53.022;12.968;2023-12-04T07:56:35;22.60;36.00
15384;DHT22;7790;53.022;12.968;2023-12-04T08:00:36;22.60;36.20
15384;DHT22;7790;53.022;12.968;2023-12-04T08:04:37;22.60;36.00
15384;DHT22;7790;53.022;12.968;2023-12-04T08:08:37;22.50;35.80
15384;DHT22;7790;53.022;12.968;2023-12-04T08:12:38;22.60;35.90
15384;DHT22;7790;53.022;12.968;2023-12-04T08:16:40;22.60;36.10
15384;DHT22;7790;53.022;12.968;2023-12-04T08:20:40;22.90;35.70
15384;DHT22;7790;53.022;12.968;2023-12-04T08:24:41;23.10;35.20
15384;DHT22;7790;53.022;12.968;2023-12-04T08:28:42;23.20;35.00
15384;DHT22;7790;53.022;12.968;2023-12-04T08:32:43;23.20;34.70
15384;DHT22;7790;53.022;12.968;2023-12-04T08:36:44;23.30;34.60
15384;DHT22;7790;53.022;12.968;2023-12-04T08:40:45;23.30;34.50
15384;DHT22;7790;53.022;12.968;2023-12-04T08:44:46;23.20;34.40
15384;DHT22;7790;53.022;12.968;2023-12-04T08:48:48;23.30;34.40
15384;DHT22;7790;53.022;12.968;2023-12-04T08:52:49;23.20;34.20
15384;DHT22;7790;53.022;12.968;2023-12-04T08:56:49;23.20;34.10
15384;DHT22;7790;53.022;12.968;2023-12-04T09:00:50;23.20;34.20
15384;DHT22;7790;53.022;12.968;2023-12-04T09:04:51;23.30;34.00
15384;DHT22;7790;53.022;12.968;2023-12-04T09:08:52;23.30;33.90
15384;DHT22;7790;53.022;12.968;2023-12-04T09:12:53;23.30;34.00
15384;DHT22;7790;53.022;12.968;2023-12-04T09:16:54;23.20;33.90
15384;DHT22;7790;53.022;12.968;2023-12-04T09:20:55;23.20;33.80
15384;DHT22;7790;53.022;12.968;2023-12-04T09:24:56;23.20;33.80
15384;DHT22;7790;53.022;12.968;2023-12-04T09:28:57;23.10;34.10
15384;DHT22;7790;53.022;12.968;2023-12-04T09:32:58;22.90;34.40
15384;DHT22;7790;53.022;12.968;2023-12-04T09:36:58;22.90;34.50
15384;DHT22;7790;53.022;12.968;2023-12-04T09:40:59;22.80;34.60
15384;DHT22;7790;53.022;12.968;2023-12-04T09:45:02;22.80;34.60
15384;DHT22;7790;53.022;12.968;2023-12-04T09:49:04;22.80;34.50
15384;DHT22;7790;53.022;12.968;2023-12-04T09:53:06;22.80;34.50
15384;DHT22;7790;53.022;12.968;2023-12-04T09:57:11;22.80;34.50
15384;DHT22;7790;53.022;12.968;2023-12-04T10:01:13;22.80;34.50
15384;DHT22;7790;53.022;12.968;2023-12-04T10:05:14;22.80;34.50
15384;DHT22;7790;53.022;12.968;2023-12-04T10:09:16;22.90;34.50
15384;DHT22;7790;53.022;12.968;2023-12-04T10:13:18;22.90;34.60
15384;DHT22;7790;53.022;12.968;2023-12-04T10:17:19;22.80;34.50
15384;DHT22;7790;53.022;12.968;2023-12-04T10:21:20;23.10;34.30
15384;DHT22;7790;53.022;12.968;2023-12-04T10:25:22;23.20;34.20
15384;DHT22;7790;53.022;12.968;2023-12-04T10:29:29;23.20;34.20
15384;DHT22;7790;53.022;12.968;2023-12-04T10:33:30;23.30;34.20
15384;DHT22;7790;53.022;12.968;2023-12-04T10:37:32;23.30;34.10
15384;DHT22;7790;53.022;12.968;2023-12-04T10:41:36;23.30;34.30
15384;DHT22;7790;53.022;12.968;2023-12-04T10:45:37;23.30;34.40
15384;DHT22;7790;53.022;12.968;2023-12-04T10:49:39;23.10;34.60
15384;DHT22;7790;53.022;12.968;2023-12-04T10:53:40;23.00;34.70
15384;DHT22;7790;53.022;12.968;2023-12-04T10:57:43;22.90;34.60
15384;DHT22;7790;53.022;12.968;2023-12-04T11:01:44;22.90;34.60
15384;DHT22;7790;53.022;12.968;2023-12-04T11:05:49;22.90;34.60
15384;DHT22;7790;53.022;12.968;2023-12-04T11:09:52;23.00;34.70
15384;DHT22;7790;53.022;12.968;2023-12-04T11:13:56;22.90;34.30
15384;DHT22;7790;53.022;12.968;2023-12-04T11:17:59;22.90;34.40
15384;DHT22;7790;53.022;12.968;2023-12-04T11:22:03;22.90;34.50
15384;DHT22;7790;53.022;12.968;2023-12-04T11:26:05;22.90;34.40
15384;DHT22;7790;53.022;12.968;2023-12-04T11:30:08;22.90;34.30
15384;DHT22;7790;53.022;12.968;2023-12-04T11:34:10;23.00;34.10
15384;DHT22;7790;53.022;12.968;2023-12-04T11:38:13;23.10;33.90
15384;DHT22;7790;53.022;12.968;2023-12-04T11:42:24;23.10;34.00
15384;DHT22;7790;53.022;12.968;2023-12-04T11:46:26;23.20;34.00
15384;DHT22;7790;53.022;12.968;2023-12-04T11:50:28;23.20;34.20
15384;DHT22;7790;53.022;12.968;2023-12-04T11:54:29;23.20;34.00
15384;DHT22;7790;53.022;12.968;2023-12-04T11:58:50;23.20;34.10
15384;DHT22;7790;53.022;12.968;2023-12-04T12:06:54;23.30;34.10
15384;DHT22;7790;53.022;12.968;2023-12-04T12:10:57;23.30;34.20
15384;DHT22;7790;53.022;12.968;2023-12-04T12:14:58;23.30;34.10
15384;DHT22;7790;53.022;12.968;2023-12-04T12:19:01;23.30;33.90
15384;DHT22;7790;53.022;12.968;2023-12-04T12:23:02;23.30;33.80
15384;DHT22;7790;53.022;12.968;2023-12-04T12:27:03;23.30;33.90
15384;DHT22;7790;53.022;12.968;2023-12-04T12:31:05;23.30;33.90
15384;DHT22;7790;53.022;12.968;2023-12-04T12:35:06;23.30;33.80
15384;DHT22;7790;53.022;12.968;2023-12-04T12:39:10;23.30;33.80
15384;DHT22;7790;53.022;12.968;2023-12-04T12:43:12;23.40;33.70
15384;DHT22;7790;53.022;12.968;2023-12-04T12:47:17;23.30;33.90
15384;DHT22;7790;53.022;12.968;2023-12-04T12:51:18;23.20;34.10
15384;DHT22;7790;53.022;12.968;2023-12-04T12:55:24;23.30;34.00
15384;DHT22;7790;53.022;12.968;2023-12-04T12:59:27;23.30;33.90
15384;DHT22;7790;53.022;12.968;2023-12-04T13:03:28;23.30;34.00
15384;DHT22;7790;53.022;12.968;2023-12-04T13:07:30;23.30;34.00
15384;DHT22;7790;53.022;12.968;2023-12-04T13:11:31;23.30;34.20
15384;DHT22;7790;53.022;12.968;2023-12-04T13:15:32;23.30;34.10
15384;DHT22;7790;53.022;12.968;2023-12-04T13:19:33;23.30;34.00
15384;DHT22;7790;53.022;12.968;2023-12-04T13:23:35;23.30;34.00
15384;DHT22;7790;53.022;12.968;2023-12-04T13:27:36;23.30;33.80
15384;DHT22;7790;53.022;12.968;2023-12-04T13:31:40;23.30;33.80
15384;DHT22;7790;53.022;12.968;2023-12-04T13:35:41;23.30;34.10
15384;DHT22;7790;53.022;12.968;2023-12-04T13:39:42;23.30;34.10
15384;DHT22;7790;53.022;12.968;2023-12-04T13:43:51;23.20;33.80
15384;DHT22;7790;53.022;12.968;2023-12-04T13:47:52;23.20;33.80
15384;DHT22;7790;53.022;12.968;2023-12-04T13:51:54;23.20;34.20
15384;DHT22;7790;53.022;12.968;2023-12-04T13:55:55;23.20;33.50
15384;DHT22;7790;53.022;12.968;2023-12-04T14:00:02;23.20;33.50
15384;DHT22;7790;53.022;12.968;2023-12-04T14:04:05;23.30;33.40
15384;DHT22;7790;53.022;12.968;2023-12-04T14:08:06;23.30;33.30
15384;DHT22;7790;53.022;12.968;2023-12-04T14:12:07;23.30;33.20
15384;DHT22;7790;53.022;12.968;2023-12-04T14:16:09;23.50;33.20
15384;DHT22;7790;53.022;12.968;2023-12-04T14:20:11;23.50;33.20
15384;DHT22;7790;53.022;12.968;2023-12-04T14:26:58;23.30;34.20
15384;DHT22;7790;53.022;12.968;2023-12-04T14:30:59;23.30;34.20
15384;DHT22;7790;53.022;12.968;2023-12-04T14:35:00;23.20;34.30
15384;DHT22;7790;53.022;12.968;2023-12-04T14:39:01;23.20;34.40
15384;DHT22;7790;53.022;12.968;2023-12-04T14:43:02;23.20;34.40
15384;DHT22;7790;53.022;12.968;2023-12-04T14:49:58;23.20;37.90
15384;DHT22;7790;53.022;12.968;2023-12-04T14:53:59;23.40;34.30
15384;DHT22;7790;53.022;12.968;2023-12-04T14:58:21;23.60;33.90
15384;DHT22;7790;53.022;12.968;2023-12-04T15:02:40;23.70;33.90
15384;DHT22;7790;53.022;12.968;2023-12-04T15:06:59;23.80;33.80
15384;DHT22;7790;53.022;12.968;2023-12-04T15:11:18;23.80;34.00
15384;DHT22;7790;53.022;12.968;2023-12-04T15:15:37;23.70;34.10
15384;DHT22;7790;53.022;12.968;2023-12-04T15:20:10;23.60;34.10
15384;DHT22;7790;53.022;12.968;2023-12-04T15:24:11;23.60;34.20
15384;DHT22;7790;53.022;12.968;2023-12-04T15:28:11;23.60;34.20
15384;DHT22;7790;53.022;12.968;2023-12-04T15:32:13;23.60;35.20
15384;DHT22;7790;53.022;12.968;2023-12-04T15:36:14;21.80;31.70
15384;DHT22;7790;53.022;12.968;2023-12-04T15:40:15;20.50;32.20
15384;DHT22;7790;53.022;12.968;2023-12-04T15:44:15;20.60;32.10
15384;DHT22;7790;53.022;12.968;2023-12-04T15:48:16;20.00;31.70
15384;DHT22;7790;53.022;12.968;2023-12-04T15:52:17;19.80;31.60
15384;DHT22;7790;53.022;12.968;2023-12-04T15:56:19;19.10;32.00
15384;DHT22;7790;53.022;12.968;2023-12-04T16:00:22;18.90;32.10
15384;DHT22;7790;53.022;12.968;2023-12-04T16:04:23;18.90;31.40
15384;DHT22;7790;53.022;12.968;2023-12-04T16:08:24;19.10;30.20
15384;DHT22;7790;53.022;12.968;2023-12-04T16:12:24;18.90;31.00
15384;DHT22;7790;53.022;12.968;2023-12-04T16:16:25;19.80;31.80
15384;DHT22;7790;53.022;12.968;2023-12-04T16:20:26;20.40;31.60
15384;DHT22;7790;53.022;12.968;2023-12-04T16:24:27;20.60;31.80
15384;DHT22;7790;53.022;12.968;2023-12-04T16:28:28;20.60;32.10
15384;DHT22;7790;53.022;12.968;2023-12-04T16:32:29;20.60;32.50
15384;DHT22;7790;53.022;12.968;2023-12-04T16:36:29;20.70;32.50
15384;DHT22;7790;53.022;12.968;2023-12-04T16:40:30;20.80;32.60
15384;DHT22;7790;53.022;12.968;2023-12-04T16:44:31;20.90;32.60
15384;DHT22;7790;53.022;12.968;2023-12-04T16:48:32;21.00;32.70
15384;DHT22;7790;53.022;12.968;2023-12-04T16:52:33;21.00;32.90
15384;DHT22;7790;53.022;12.968;2023-12-04T16:56:34;21.10;33.10
15384;DHT22;7790;53.022;12.968;2023-12-04T17:00:34;21.10;33.20
15384;DHT22;7790;53.022;12.968;2023-12-04T17:04:35;21.20;33.30
15384;DHT22;7790;53.022;12.968;2023-12-04T17:08:36;21.40;33.50
15384;DHT22;7790;53.022;12.968;2023-12-04T17:12:37;21.90;33.50
15384;DHT22;7790;53.022;12.968;2023-12-04T17:16:44;22.00;33.50
15384;DHT22;7790;53.022;12.968;2023-12-04T17:20:45;22.10;33.70
15384;DHT22;7790;53.022;12.968;2023-12-04T17:24:46;22.20;33.80
15384;DHT22;7790;53.022;12.968;2023-12-04T17:28:47;22.30;33.90
15384;DHT22;7790;53.022;12.968;2023-12-04T17:32:47;22.30;34.00
15384;DHT22;7790;53.022;12.968;2023-12-04T17:36:48;22.40;34.20
15384;DHT22;7790;53.022;12.968;2023-12-04T17:40:49;22.40;34.60
15384;DHT22;7790;53.022;12.968;2023-12-04T17:44:50;22.50;34.20
15384;DHT22;7790;53.022;12.968;2023-12-04T17:48:50;22.50;34.20
15384;DHT22;7790;53.022;12.968;2023-12-04T17:52:51;22.50;34.10
15384;DHT22;7790;53.022;12.968;2023-12-04T17:56:52;22.60;34.10
15384;DHT22;7790;53.022;12.968;2023-12-04T18:00:53;22.60;34.10
15384;DHT22;7790;53.022;12.968;2023-12-04T18:04:54;22.70;34.20
15384;DHT22;7790;53.022;12.968;2023-12-04T18:08:55;22.70;34.10
15384;DHT22;7790;53.022;12.968;2023-12-04T18:12:56;22.70;34.10
15384;DHT22;7790;53.022;12.968;2023-12-04T18:16:57;22.80;34.10
15384;DHT22;7790;53.022;12.968;2023-12-04T18:20:58;22.90;34.20
15384;DHT22;7790;53.022;12.968;2023-12-04T18:24:59;22.90;34.10
15384;DHT22;7790;53.022;12.968;2023-12-04T18:29:01;22.90;34.10
15384;DHT22;7790;53.022;12.968;2023-12-04T18:33:03;23.00;34.20
15384;DHT22;7790;53.022;12.968;2023-12-04T18:37:21;23.10;34.20
15384;DHT22;7790;53.022;12.968;2023-12-04T18:41:23;23.00;34.10
15384;DHT22;7790;53.022;12.968;2023-12-04T18:45:24;23.10;33.90
15384;DHT22;7790;53.022;12.968;2023-12-04T18:49:25;23.20;34.00
15384;DHT22;7790;53.022;12.968;2023-12-04T18:53:26;23.20;33.90
15384;DHT22;7790;53.022;12.968;2023-12-04T18:57:27;23.20;34.00
15384;DHT22;7790;53.022;12.968;2023-12-04T19:01:28;23.10;33.90
15384;DHT22;7790;53.022;12.968;2023-12-04T19:05:29;23.10;33.90
15384;DHT22;7790;53.022;12.968;2023-12-04T19:09:31;23.10;34.00
15384;DHT22;7790;53.022;12.968;2023-12-04T19:13:31;23.10;34.00
15384;DHT22;7790;53.022;12.968;2023-12-04T19:17:32;23.10;33.90
15384;DHT22;7790;53.022;12.968;2023-12-04T19:21:33;23.10;34.00
15384;DHT22;7790;53.022;12.968;2023-12-04T19:25:34;23.10;33.90
15384;DHT22;7790;53.022;12.968;2023-12-04T19:29:35;23.10;34.10
15384;DHT22;7790;53.022;12.968;2023-12-04T19:33:36;23.20;33.70
15384;DHT22;7790;53.022;12.968;2023-12-04T19:37:37;23.20;33.70
15384;DHT22;7790;53.022;12.968;2023-12-04T19:41:38;23.20;33.50
15384;DHT22;7790;53.022;12.968;2023-12-04T19:45:39;23.30;33.40
15384;DHT22;7790;53.022;12.968;2023-12-04T19:49:43;23.20;33.70
15384;DHT22;7790;53.022;12.968;2023-12-04T19:53:45;23.00;34.00
15384;DHT22;7790;53.022;12.968;2023-12-04T19:57:46;22.80;33.50
15384;DHT22;7790;53.022;12.968;2023-12-04T20:01:46;22.70;33.40
15384;DHT22;7790;53.022;12.968;2023-12-04T20:05:47;22.60;33.00
15384;DHT22;7790;53.022;12.968;2023-12-04T20:09:48;22.60;33.70
15384;DHT22;7790;53.022;12.968;2023-12-04T20:13:49;22.60;33.60
15384;DHT22;7790;53.022;12.968;2023-12-04T20:17:50;22.80;33.50
15384;DHT22;7790;53.022;12.968;2023-12-04T20:21:50;22.80;33.40
15384;DHT22;7790;53.022;12.968;2023-12-04T20:25:51;22.90;33.30
15384;DHT22;7790;53.022;12.968;2023-12-04T20:29:52;23.10;33.30
15384;DHT22;7790;53.022;12.968;2023-12-04T20:33:54;23.20;33.80
15384;DHT22;7790;53.022;12.968;2023-12-04T20:37:55;23.20;34.10
15384;DHT22;7790;53.022;12.968;2023-12-04T20:41:56;23.30;34.40
15384;DHT22;7790;53.022;12.968;2023-12-04T20:45:57;23.30;35.30
15384;DHT22;7790;53.022;12.968;2023-12-04T20:49:58;23.30;34.30
15384;DHT22;7790;53.022;12.968;2023-12-04T20:53:58;23.40;34.60
15384;DHT22;7790;53.022;12.968;2023-12-04T20:57:59;23.30;34.20
15384;DHT22;7790;53.022;12.968;2023-12-04T21:02:01;23.30;34.40
15384;DHT22;7790;53.022;12.968;2023-12-04T21:06:02;23.30;34.40
15384;DHT22;7790;53.022;12.968;2023-12-04T21:10:04;23.30;34.30
15384;DHT22;7790;53.022;12.968;2023-12-04T21:14:04;23.20;34.40
15384;DHT22;7790;53.022;12.968;2023-12-04T21:18:05;23.10;34.30
15384;DHT22;7790;53.022;12.968;2023-12-04T21:22:07;23.00;34.20
15384;DHT22;7790;53.022;12.968;2023-12-04T21:26:07;23.00;34.00
15384;DHT22;7790;53.022;12.968;2023-12-04T21:30:08;22.90;33.90
15384;DHT22;7790;53.022;12.968;2023-12-04T21:34:11;22.80;34.20
15384;DHT22;7790;53.022;12.968;2023-12-04T21:38:13;22.70;34.60
15384;DHT22;7790;53.022;12.968;2023-12-04T21:42:14;22.60;34.60
15384;DHT22;7790;53.022;12.968;2023-12-04T21:46:15;22.60;34.60
15384;DHT22;7790;53.022;12.968;2023-12-04T21:50:16;22.50;34.50
15384;DHT22;7790;53.022;12.968;2023-12-04T21:54:17;22.40;34.50
15384;DHT22;7790;53.022;12.968;2023-12-04T21:58:18;22.30;34.60
15384;DHT22;7790;53.022;12.968;2023-12-04T22:02:18;22.20;34.70
15384;DHT22;7790;53.022;12.968;2023-12-04T22:06:19;22.10;34.60
15384;DHT22;7790;53.022;12.968;2023-12-04T22:10:20;22.10;34.30
15384;DHT22;7790;53.022;12.968;2023-12-04T22:14:24;22.10;34.10
15384;DHT22;7790;53.022;12.968;2023-12-04T22:18:25;22.10;34.00
15384;DHT22;7790;53.022;12.968;2023-12-04T22:22:26;22.10;33.70
15384;DHT22;7790;53.022;12.968;2023-12-04T22:26:26;22.10;33.70
15384;DHT22;7790;53.022;12.968;2023-12-04T22:30:27;22.00;33.70
15384;DHT22;7790;53.022;12.968;2023-12-04T22:34:28;22.00;33.90
15384;DHT22;7790;53.022;12.968;2023-12-04T22:38:29;22.00;34.00
15384;DHT22;7790;53.022;12.968;2023-12-04T22:42:30;22.00;34.00
15384;DHT22;7790;53.022;12.968;2023-12-04T22:46:31;22.00;33.90
15384;DHT22;7790;53.022;12.968;2023-12-04T22:50:31;21.90;34.00
15384;DHT22;7790;53.022;12.968;2023-12-04T22:54:32;21.90;34.00
15384;DHT22;7790;53.022;12.968;2023-12-04T22:58:33;21.90;33.70
15384;DHT22;7790;53.022;12.968;2023-12-04T23:02:34;21.90;33.80
15384;DHT22;7790;53.022;12.968;2023-12-04T23:06:34;21.90;33.70
15384;DHT22;7790;53.022;12.968;2023-12-04T23:10:35;21.80;33.60
15384;DHT22;7790;53.022;12.968;2023-12-04T23:14:36;21.80;33.50
15384;DHT22;7790;53.022;12.968;2023-12-04T23:18:37;21.80;33.50
15384;DHT22;7790;53.022;12.968;2023-12-04T23:22:38;21.70;33.70
15384;DHT22;7790;53.022;12.968;2023-12-04T23:26:39;21.70;33.70
15384;DHT22;7790;53.022;12.968;2023-12-04T23:30:40;21.70;33.90
15384;DHT22;7790;53.022;12.968;2023-12-04T23:34:43;21.70;33.70
15384;DHT22;7790;53.022;12.968;2023-12-04T23:38:43;21.70;33.60
15384;DHT22;7790;53.022;12.968;2023-12-04T23:42:44;21.70;33.70
15384;DHT22;7790;53.022;12.968;2023-12-04T23:46:45;21.80;34.60
15384;DHT22;7790;53.022;12.968;2023-12-04T23:50:46;21.80;34.70
15384;DHT22;7790;53.022;12.968;2023-12-04T23:54:47;21.80;34.80
15384;DHT22;7790;53.022;12.968;2023-12-04T23:58:47;21.70;34.80
